sensor_id;sensor_type;location;lat;lon;timestamp;P1;durP1;ratioP1;P2;durP2;ratioP2
72087;SDS011;59961;50.232;8.616;2023-03-12T00:01:33;6.28;;;2.38;;
72087;SDS011;59961;50.232;8.616;2023-03-12T00:04:02;5.10;;;2.07;;
72087;SDS011;59961;50.232;8.616;2023-03-12T00:06:27;5.43;;;2.10;;
72087;SDS011;59961;50.232;8.616;2023-03-12T00:08:52;6.93;;;2.67;;
72087;SDS011;59961;50.232;8.616;2023-03-12T00:11:18;6.57;;;2.60;;
72087;SDS011;59961;50.232;8.616;2023-03-12T00:13:47;10.32;;;3.33;;
72087;SDS011;59961;50.232;8.616;2023-03-12T00:16:14;6.35;;;2.15;;
72087;SDS011;59961;50.232;8.616;2023-03-12T00:18:41;4.20;;;1.80;;
72087;SDS011;59961;50.232;8.616;2023-03-12T00:21:07;5.80;;;2.55;;
72087;SDS011;59961;50.232;8.616;2023-03-12T00:23:34;5.47;;;2.37;;
72087;SDS011;59961;50.232;8.616;2023-03-12T00:26:03;13.43;;;2.97;;
72087;SDS011;59961;50.232;8.616;2023-03-12T00:28:29;5.57;;;1.90;;
72087;SDS011;59961;50.232;8.616;2023-03-12T00:30:54;4.03;;;1.70;;
72087;SDS011;59961;50.232;8.616;2023-03-12T00:33:19;4.77;;;1.70;;
72087;SDS011;59961;50.232;8.616;2023-03-12T00:35:44;5.83;;;1.73;;
72087;SDS011;59961;50.232;8.616;2023-03-12T00:38:10;6.13;;;1.87;;
72087;SDS011;59961;50.232;8.616;2023-03-12T00:40:35;2.88;;;1.58;;
72087;SDS011;59961;50.232;8.616;2023-03-12T00:43:03;6.07;;;2.37;;
72087;SDS011;59961;50.232;8.616;2023-03-12T00:45:28;5.30;;;2.00;;
72087;SDS011;59961;50.232;8.616;2023-03-12T00:47:53;4.90;;;2.13;;
72087;SDS011;59961;50.232;8.616;2023-03-12T00:50:18;5.13;;;1.70;;
72087;SDS011;59961;50.232;8.616;2023-03-12T00:52:43;9.03;;;2.13;;
72087;SDS011;59961;50.232;8.616;2023-03-12T00:55:09;2.87;;;1.47;;
72087;SDS011;59961;50.232;8.616;2023-03-12T00:57:34;5.53;;;1.57;;
72087;SDS011;59961;50.232;8.616;2023-03-12T00:59:59;4.97;;;1.63;;
72087;SDS011;59961;50.232;8.616;2023-03-12T01:02:24;4.10;;;1.50;;
72087;SDS011;59961;50.232;8.616;2023-03-12T01:04:49;4.20;;;1.52;;
72087;SDS011;59961;50.232;8.616;2023-03-12T01:07:14;3.78;;;1.60;;
72087;SDS011;59961;50.232;8.616;2023-03-12T01:09:39;5.80;;;1.63;;
72087;SDS011;59961;50.232;8.616;2023-03-12T01:12:05;3.80;;;1.83;;
72087;SDS011;59961;50.232;8.616;2023-03-12T01:14:30;4.47;;;1.73;;
72087;SDS011;59961;50.232;8.616;2023-03-12T01:16:55;3.80;;;1.67;;
72087;SDS011;59961;50.232;8.616;2023-03-12T01:19:22;3.47;;;1.13;;
72087;SDS011;59961;50.232;8.616;2023-03-12T01:21:47;5.03;;;1.80;;
72087;SDS011;59961;50.232;8.616;2023-03-12T01:24:12;2.83;;;1.47;;
72087;SDS011;59961;50.232;8.616;2023-03-12T01:26:37;3.53;;;1.65;;
72087;SDS011;59961;50.232;8.616;2023-03-12T01:29:02;5.43;;;2.38;;
72087;SDS011;59961;50.232;8.616;2023-03-12T01:31:28;4.40;;;1.97;;
72087;SDS011;59961;50.232;8.616;2023-03-12T01:33:53;6.70;;;2.67;;
72087;SDS011;59961;50.232;8.616;2023-03-12T01:36:20;5.90;;;2.37;;
72087;SDS011;59961;50.232;8.616;2023-03-12T01:38:45;9.15;;;2.83;;
72087;SDS011;59961;50.232;8.616;2023-03-12T01:41:11;6.57;;;2.63;;
72087;SDS011;59961;50.232;8.616;2023-03-12T01:43:37;10.23;;;2.70;;
72087;SDS011;59961;50.232;8.616;2023-03-12T01:51:17;9.65;;;2.90;;
72087;SDS011;59961;50.232;8.616;2023-03-12T01:53:44;5.40;;;2.13;;
72087;SDS011;59961;50.232;8.616;2023-03-12T01:56:10;4.93;;;1.83;;
72087;SDS011;59961;50.232;8.616;2023-03-12T01:58:38;4.95;;;2.42;;
72087;SDS011;59961;50.232;8.616;2023-03-12T02:01:04;7.70;;;2.45;;
72087;SDS011;59961;50.232;8.616;2023-03-12T02:03:30;6.03;;;2.13;;
72087;SDS011;59961;50.232;8.616;2023-03-12T02:06:05;3.93;;;1.63;;
72087;SDS011;59961;50.232;8.616;2023-03-12T02:08:36;5.32;;;2.28;;
72087;SDS011;59961;50.232;8.616;2023-03-12T02:11:02;5.05;;;2.30;;
72087;SDS011;59961;50.232;8.616;2023-03-12T02:13:27;3.87;;;1.97;;
72087;SDS011;59961;50.232;8.616;2023-03-12T02:15:52;6.85;;;2.05;;
72087;SDS011;59961;50.232;8.616;2023-03-12T02:18:18;6.07;;;1.77;;
72087;SDS011;59961;50.232;8.616;2023-03-12T02:20:58;4.13;;;2.00;;
72087;SDS011;59961;50.232;8.616;2023-03-12T02:23:37;5.45;;;1.90;;
72087;SDS011;59961;50.232;8.616;2023-03-12T02:26:05;4.72;;;2.05;;
72087;SDS011;59961;50.232;8.616;2023-03-12T02:28:31;5.50;;;1.83;;
72087;SDS011;59961;50.232;8.616;2023-03-12T02:31:01;6.77;;;2.13;;
72087;SDS011;59961;50.232;8.616;2023-03-12T02:33:27;4.13;;;1.67;;
72087;SDS011;59961;50.232;8.616;2023-03-12T02:35:54;4.13;;;1.80;;
72087;SDS011;59961;50.232;8.616;2023-03-12T02:38:33;6.10;;;2.40;;
72087;SDS011;59961;50.232;8.616;2023-03-12T02:40:59;4.85;;;2.25;;
72087;SDS011;59961;50.232;8.616;2023-03-12T02:43:25;4.43;;;2.00;;
72087;SDS011;59961;50.232;8.616;2023-03-12T02:45:51;4.03;;;2.13;;
72087;SDS011;59961;50.232;8.616;2023-03-12T02:48:16;3.87;;;1.77;;
72087;SDS011;59961;50.232;8.616;2023-03-12T02:50:42;7.07;;;2.10;;
72087;SDS011;59961;50.232;8.616;2023-03-12T02:53:07;7.00;;;2.13;;
72087;SDS011;59961;50.232;8.616;2023-03-12T02:55:32;4.30;;;2.20;;
72087;SDS011;59961;50.232;8.616;2023-03-12T02:58:01;6.65;;;2.35;;
72087;SDS011;59961;50.232;8.616;2023-03-12T03:00:27;4.53;;;1.88;;
72087;SDS011;59961;50.232;8.616;2023-03-12T03:02:59;4.78;;;2.17;;
72087;SDS011;59961;50.232;8.616;2023-03-12T03:05:25;5.88;;;1.98;;
72087;SDS011;59961;50.232;8.616;2023-03-12T03:07:50;5.70;;;2.23;;
72087;SDS011;59961;50.232;8.616;2023-03-12T03:10:15;5.13;;;2.27;;
72087;SDS011;59961;50.232;8.616;2023-03-12T03:12:41;4.47;;;2.40;;
72087;SDS011;59961;50.232;8.616;2023-03-12T03:15:08;6.28;;;2.33;;
72087;SDS011;59961;50.232;8.616;2023-03-12T03:17:33;5.67;;;2.60;;
72087;SDS011;59961;50.232;8.616;2023-03-12T03:19:59;6.50;;;2.87;;
72087;SDS011;59961;50.232;8.616;2023-03-12T03:22:24;4.10;;;2.23;;
72087;SDS011;59961;50.232;8.616;2023-03-12T03:24:49;6.77;;;3.00;;
72087;SDS011;59961;50.232;8.616;2023-03-12T03:27:14;4.53;;;2.13;;
72087;SDS011;59961;50.232;8.616;2023-03-12T03:29:39;8.50;;;2.53;;
72087;SDS011;59961;50.232;8.616;2023-03-12T03:32:05;8.40;;;3.40;;
72087;SDS011;59961;50.232;8.616;2023-03-12T03:34:30;3.67;;;1.80;;
72087;SDS011;59961;50.232;8.616;2023-03-12T03:36:55;3.53;;;2.10;;
72087;SDS011;59961;50.232;8.616;2023-03-12T03:39:20;4.70;;;2.03;;
72087;SDS011;59961;50.232;8.616;2023-03-12T03:41:47;4.47;;;2.00;;
72087;SDS011;59961;50.232;8.616;2023-03-12T03:44:12;5.82;;;2.17;;
72087;SDS011;59961;50.232;8.616;2023-03-12T03:46:38;4.05;;;1.88;;
72087;SDS011;59961;50.232;8.616;2023-03-12T03:49:03;8.70;;;2.33;;
72087;SDS011;59961;50.232;8.616;2023-03-12T03:51:28;4.53;;;2.00;;
72087;SDS011;59961;50.232;8.616;2023-03-12T03:53:54;6.10;;;2.30;;
72087;SDS011;59961;50.232;8.616;2023-03-12T03:56:19;3.67;;;1.70;;
72087;SDS011;59961;50.232;8.616;2023-03-12T03:58:44;6.87;;;2.33;;
72087;SDS011;59961;50.232;8.616;2023-03-12T04:01:11;5.50;;;2.43;;
72087;SDS011;59961;50.232;8.616;2023-03-12T04:03:36;4.73;;;2.00;;
72087;SDS011;59961;50.232;8.616;2023-03-12T04:06:02;6.28;;;2.13;;
72087;SDS011;59961;50.232;8.616;2023-03-12T04:08:28;5.78;;;2.65;;
72087;SDS011;59961;50.232;8.616;2023-03-12T04:10:53;5.73;;;2.40;;
72087;SDS011;59961;50.232;8.616;2023-03-12T04:13:18;6.73;;;3.10;;
72087;SDS011;59961;50.232;8.616;2023-03-12T04:15:47;5.50;;;2.60;;
72087;SDS011;59961;50.232;8.616;2023-03-12T04:18:13;4.55;;;2.28;;
72087;SDS011;59961;50.232;8.616;2023-03-12T04:20:38;5.17;;;2.53;;
72087;SDS011;59961;50.232;8.616;2023-03-12T04:23:03;7.25;;;2.78;;
72087;SDS011;59961;50.232;8.616;2023-03-12T04:25:29;7.07;;;2.43;;
72087;SDS011;59961;50.232;8.616;2023-03-12T04:27:54;5.63;;;2.63;;
72087;SDS011;59961;50.232;8.616;2023-03-12T04:30:20;5.10;;;2.63;;
72087;SDS011;59961;50.232;8.616;2023-03-12T04:32:45;6.37;;;2.80;;
72087;SDS011;59961;50.232;8.616;2023-03-12T04:35:10;6.00;;;2.78;;
72087;SDS011;59961;50.232;8.616;2023-03-12T04:37:35;6.07;;;2.80;;
72087;SDS011;59961;50.232;8.616;2023-03-12T04:40:01;5.03;;;2.90;;
72087;SDS011;59961;50.232;8.616;2023-03-12T04:42:28;5.75;;;3.03;;
72087;SDS011;59961;50.232;8.616;2023-03-12T04:44:55;8.70;;;3.17;;
72087;SDS011;59961;50.232;8.616;2023-03-12T04:47:20;6.43;;;2.93;;
72087;SDS011;59961;50.232;8.616;2023-03-12T04:49:45;6.80;;;2.47;;
72087;SDS011;59961;50.232;8.616;2023-03-12T04:52:10;8.27;;;3.67;;
72087;SDS011;59961;50.232;8.616;2023-03-12T04:54:35;11.17;;;3.47;;
72087;SDS011;59961;50.232;8.616;2023-03-12T04:57:01;8.10;;;3.45;;
72087;SDS011;59961;50.232;8.616;2023-03-12T04:59:26;8.30;;;3.92;;
72087;SDS011;59961;50.232;8.616;2023-03-12T05:01:51;7.85;;;4.05;;
72087;SDS011;59961;50.232;8.616;2023-03-12T05:04:16;8.80;;;4.10;;
72087;SDS011;59961;50.232;8.616;2023-03-12T05:06:41;10.07;;;4.80;;
72087;SDS011;59961;50.232;8.616;2023-03-12T05:09:07;9.93;;;5.10;;
72087;SDS011;59961;50.232;8.616;2023-03-12T05:11:32;13.65;;;5.13;;
72087;SDS011;59961;50.232;8.616;2023-03-12T05:13:57;10.23;;;5.40;;
72087;SDS011;59961;50.232;8.616;2023-03-12T05:16:23;11.27;;;5.37;;
72087;SDS011;59961;50.232;8.616;2023-03-12T05:18:48;8.33;;;4.40;;
72087;SDS011;59961;50.232;8.616;2023-03-12T05:21:14;11.10;;;4.40;;
72087;SDS011;59961;50.232;8.616;2023-03-12T05:23:40;10.95;;;4.43;;
72087;SDS011;59961;50.232;8.616;2023-03-12T05:26:28;11.65;;;4.55;;
72087;SDS011;59961;50.232;8.616;2023-03-12T05:28:55;8.80;;;4.55;;
72087;SDS011;59961;50.232;8.616;2023-03-12T05:31:21;9.10;;;4.78;;
72087;SDS011;59961;50.232;8.616;2023-03-12T05:33:47;12.43;;;4.73;;
72087;SDS011;59961;50.232;8.616;2023-03-12T05:36:13;13.97;;;4.40;;
72087;SDS011;59961;50.232;8.616;2023-03-12T05:38:39;10.15;;;4.22;;
72087;SDS011;59961;50.232;8.616;2023-03-12T05:41:04;11.27;;;4.73;;
72087;SDS011;59961;50.232;8.616;2023-03-12T05:43:29;12.18;;;4.68;;
72087;SDS011;59961;50.232;8.616;2023-03-12T05:45:58;10.63;;;4.90;;
72087;SDS011;59961;50.232;8.616;2023-03-12T05:48:24;13.65;;;5.45;;
72087;SDS011;59961;50.232;8.616;2023-03-12T05:50:49;9.38;;;4.50;;
72087;SDS011;59961;50.232;8.616;2023-03-12T05:53:15;11.77;;;4.57;;
72087;SDS011;59961;50.232;8.616;2023-03-12T05:55:40;9.63;;;4.40;;
72087;SDS011;59961;50.232;8.616;2023-03-12T05:58:05;9.93;;;4.13;;
72087;SDS011;59961;50.232;8.616;2023-03-12T06:00:31;7.40;;;3.90;;
72087;SDS011;59961;50.232;8.616;2023-03-12T06:02:57;11.23;;;4.95;;
72087;SDS011;59961;50.232;8.616;2023-03-12T06:05:22;9.10;;;4.23;;
72087;SDS011;59961;50.232;8.616;2023-03-12T06:07:47;8.40;;;4.77;;
72087;SDS011;59961;50.232;8.616;2023-03-12T06:10:12;8.40;;;4.00;;
72087;SDS011;59961;50.232;8.616;2023-03-12T06:12:37;9.70;;;4.37;;
72087;SDS011;59961;50.232;8.616;2023-03-12T06:15:03;12.00;;;4.40;;
72087;SDS011;59961;50.232;8.616;2023-03-12T06:17:29;8.88;;;4.63;;
72087;SDS011;59961;50.232;8.616;2023-03-12T06:19:55;6.87;;;3.80;;
72087;SDS011;59961;50.232;8.616;2023-03-12T06:22:21;9.00;;;4.10;;
72087;SDS011;59961;50.232;8.616;2023-03-12T06:24:46;8.70;;;4.20;;
72087;SDS011;59961;50.232;8.616;2023-03-12T06:27:11;9.60;;;4.23;;
72087;SDS011;59961;50.232;8.616;2023-03-12T06:29:38;8.13;;;3.78;;
72087;SDS011;59961;50.232;8.616;2023-03-12T06:32:03;9.13;;;4.63;;
72087;SDS011;59961;50.232;8.616;2023-03-12T06:34:28;7.93;;;3.50;;
72087;SDS011;59961;50.232;8.616;2023-03-12T06:36:53;9.63;;;4.23;;
72087;SDS011;59961;50.232;8.616;2023-03-12T06:39:19;9.43;;;4.23;;
72087;SDS011;59961;50.232;8.616;2023-03-12T06:41:44;8.95;;;4.68;;
72087;SDS011;59961;50.232;8.616;2023-03-12T06:44:09;7.30;;;3.97;;
72087;SDS011;59961;50.232;8.616;2023-03-12T06:46:35;11.13;;;4.30;;
72087;SDS011;59961;50.232;8.616;2023-03-12T06:49:01;10.37;;;3.80;;
72087;SDS011;59961;50.232;8.616;2023-03-12T06:51:27;13.67;;;4.80;;
72087;SDS011;59961;50.232;8.616;2023-03-12T06:53:52;8.90;;;4.15;;
72087;SDS011;59961;50.232;8.616;2023-03-12T06:56:17;8.10;;;4.60;;
72087;SDS011;59961;50.232;8.616;2023-03-12T06:58:43;11.53;;;4.93;;
72087;SDS011;59961;50.232;8.616;2023-03-12T07:01:08;11.87;;;4.90;;
72087;SDS011;59961;50.232;8.616;2023-03-12T07:03:34;14.13;;;5.17;;
72087;SDS011;59961;50.232;8.616;2023-03-12T07:05:59;13.27;;;4.73;;
72087;SDS011;59961;50.232;8.616;2023-03-12T07:08:26;8.13;;;4.80;;
72087;SDS011;59961;50.232;8.616;2023-03-12T07:10:56;9.90;;;4.38;;
72087;SDS011;59961;50.232;8.616;2023-03-12T07:13:21;8.68;;;4.05;;
72087;SDS011;59961;50.232;8.616;2023-03-12T07:15:49;8.97;;;4.10;;
72087;SDS011;59961;50.232;8.616;2023-03-12T07:18:14;8.82;;;4.15;;
72087;SDS011;59961;50.232;8.616;2023-03-12T07:20:40;9.57;;;4.10;;
72087;SDS011;59961;50.232;8.616;2023-03-12T07:23:06;9.02;;;3.92;;
72087;SDS011;59961;50.232;8.616;2023-03-12T07:25:34;9.63;;;4.57;;
72087;SDS011;59961;50.232;8.616;2023-03-12T07:28:00;8.82;;;4.30;;
72087;SDS011;59961;50.232;8.616;2023-03-12T07:30:25;8.90;;;4.60;;
72087;SDS011;59961;50.232;8.616;2023-03-12T07:32:50;9.47;;;4.30;;
72087;SDS011;59961;50.232;8.616;2023-03-12T07:35:15;8.63;;;4.15;;
72087;SDS011;59961;50.232;8.616;2023-03-12T07:37:41;8.02;;;4.60;;
72087;SDS011;59961;50.232;8.616;2023-03-12T07:40:09;8.27;;;3.90;;
72087;SDS011;59961;50.232;8.616;2023-03-12T07:42:35;7.50;;;3.60;;
72087;SDS011;59961;50.232;8.616;2023-03-12T07:45:02;3.97;;;1.93;;
72087;SDS011;59961;50.232;8.616;2023-03-12T07:47:28;7.95;;;3.42;;
72087;SDS011;59961;50.232;8.616;2023-03-12T07:49:53;7.83;;;3.47;;
72087;SDS011;59961;50.232;8.616;2023-03-12T07:52:19;8.25;;;4.10;;
72087;SDS011;59961;50.232;8.616;2023-03-12T07:54:44;8.53;;;3.50;;
72087;SDS011;59961;50.232;8.616;2023-03-12T07:57:09;5.30;;;2.57;;
72087;SDS011;59961;50.232;8.616;2023-03-12T07:59:35;7.88;;;3.80;;
72087;SDS011;59961;50.232;8.616;2023-03-12T08:02:00;10.43;;;3.43;;
72087;SDS011;59961;50.232;8.616;2023-03-12T08:04:25;7.50;;;3.30;;
72087;SDS011;59961;50.232;8.616;2023-03-12T08:06:50;9.43;;;3.50;;
72087;SDS011;59961;50.232;8.616;2023-03-12T08:09:15;9.25;;;4.00;;
72087;SDS011;59961;50.232;8.616;2023-03-12T08:11:41;6.67;;;3.40;;
72087;SDS011;59961;50.232;8.616;2023-03-12T08:14:07;12.95;;;4.10;;
72087;SDS011;59961;50.232;8.616;2023-03-12T08:16:32;9.02;;;3.85;;
72087;SDS011;59961;50.232;8.616;2023-03-12T08:18:57;8.07;;;4.05;;
72087;SDS011;59961;50.232;8.616;2023-03-12T08:21:22;6.83;;;3.60;;
72087;SDS011;59961;50.232;8.616;2023-03-12T08:23:48;7.28;;;3.83;;
72087;SDS011;59961;50.232;8.616;2023-03-12T08:26:13;8.33;;;3.57;;
72087;SDS011;59961;50.232;8.616;2023-03-12T08:28:39;8.63;;;3.87;;
72087;SDS011;59961;50.232;8.616;2023-03-12T08:31:04;10.57;;;4.10;;
72087;SDS011;59961;50.232;8.616;2023-03-12T08:33:30;11.45;;;4.75;;
72087;SDS011;59961;50.232;8.616;2023-03-12T08:35:55;8.43;;;4.43;;
72087;SDS011;59961;50.232;8.616;2023-03-12T08:38:20;9.33;;;4.57;;
72087;SDS011;59961;50.232;8.616;2023-03-12T08:40:46;10.02;;;4.90;;
72087;SDS011;59961;50.232;8.616;2023-03-12T08:43:11;9.43;;;4.03;;
72087;SDS011;59961;50.232;8.616;2023-03-12T08:45:36;9.27;;;4.40;;
72087;SDS011;59961;50.232;8.616;2023-03-12T08:48:02;9.73;;;4.47;;
72087;SDS011;59961;50.232;8.616;2023-03-12T08:50:27;11.82;;;4.55;;
72087;SDS011;59961;50.232;8.616;2023-03-12T08:52:55;9.05;;;4.30;;
72087;SDS011;59961;50.232;8.616;2023-03-12T08:55:21;9.03;;;4.23;;
72087;SDS011;59961;50.232;8.616;2023-03-12T08:57:46;10.80;;;4.40;;
72087;SDS011;59961;50.232;8.616;2023-03-12T09:00:12;8.77;;;3.80;;
72087;SDS011;59961;50.232;8.616;2023-03-12T09:02:39;10.03;;;3.83;;
72087;SDS011;59961;50.232;8.616;2023-03-12T09:05:04;10.68;;;4.40;;
72087;SDS011;59961;50.232;8.616;2023-03-12T09:07:30;8.40;;;4.23;;
72087;SDS011;59961;50.232;8.616;2023-03-12T09:09:55;8.70;;;4.23;;
72087;SDS011;59961;50.232;8.616;2023-03-12T09:12:20;11.57;;;4.40;;
72087;SDS011;59961;50.232;8.616;2023-03-12T09:14:46;11.37;;;4.33;;
72087;SDS011;59961;50.232;8.616;2023-03-12T09:17:11;9.93;;;4.60;;
72087;SDS011;59961;50.232;8.616;2023-03-12T09:19:36;8.63;;;4.30;;
72087;SDS011;59961;50.232;8.616;2023-03-12T09:22:01;7.97;;;4.57;;
72087;SDS011;59961;50.232;8.616;2023-03-12T09:24:26;11.73;;;4.72;;
72087;SDS011;59961;50.232;8.616;2023-03-12T09:26:51;11.20;;;5.30;;
72087;SDS011;59961;50.232;8.616;2023-03-12T09:29:16;9.68;;;4.68;;
72087;SDS011;59961;50.232;8.616;2023-03-12T09:31:42;10.53;;;4.70;;
72087;SDS011;59961;50.232;8.616;2023-03-12T09:34:07;8.93;;;4.77;;
72087;SDS011;59961;50.232;8.616;2023-03-12T09:36:32;9.30;;;4.18;;
72087;SDS011;59961;50.232;8.616;2023-03-12T09:38:58;7.23;;;4.40;;
72087;SDS011;59961;50.232;8.616;2023-03-12T09:41:29;10.85;;;5.30;;
72087;SDS011;59961;50.232;8.616;2023-03-12T09:46:42;10.43;;;5.38;;
72087;SDS011;59961;50.232;8.616;2023-03-12T09:49:10;12.05;;;5.80;;
72087;SDS011;59961;50.232;8.616;2023-03-12T09:51:42;12.48;;;6.22;;
72087;SDS011;59961;50.232;8.616;2023-03-12T09:54:13;11.23;;;5.68;;
72087;SDS011;59961;50.232;8.616;2023-03-12T09:56:42;12.20;;;5.20;;
72087;SDS011;59961;50.232;8.616;2023-03-12T09:59:09;15.20;;;6.13;;
72087;SDS011;59961;50.232;8.616;2023-03-12T10:01:55;13.57;;;6.47;;
72087;SDS011;59961;50.232;8.616;2023-03-12T10:07:06;13.65;;;7.00;;
72087;SDS011;59961;50.232;8.616;2023-03-12T10:14:55;14.90;;;7.47;;
72087;SDS011;59961;50.232;8.616;2023-03-12T10:23:06;16.15;;;7.35;;
72087;SDS011;59961;50.232;8.616;2023-03-12T10:25:35;17.80;;;7.63;;
72087;SDS011;59961;50.232;8.616;2023-03-12T10:28:17;19.20;;;8.50;;
72087;SDS011;59961;50.232;8.616;2023-03-12T10:30:49;14.88;;;7.80;;
72087;SDS011;59961;50.232;8.616;2023-03-12T10:33:16;14.55;;;6.97;;
72087;SDS011;59961;50.232;8.616;2023-03-12T10:35:42;14.10;;;6.97;;
72087;SDS011;59961;50.232;8.616;2023-03-12T10:38:19;15.83;;;7.20;;
72087;SDS011;59961;50.232;8.616;2023-03-12T10:40:47;17.08;;;7.32;;
72087;SDS011;59961;50.232;8.616;2023-03-12T10:43:12;13.43;;;6.47;;
72087;SDS011;59961;50.232;8.616;2023-03-12T10:45:46;15.90;;;8.18;;
72087;SDS011;59961;50.232;8.616;2023-03-12T10:48:22;18.30;;;7.53;;
72087;SDS011;59961;50.232;8.616;2023-03-12T10:51:02;20.88;;;8.57;;
72087;SDS011;59961;50.232;8.616;2023-03-12T10:53:28;18.45;;;8.65;;
72087;SDS011;59961;50.232;8.616;2023-03-12T10:56:08;13.68;;;6.68;;
72087;SDS011;59961;50.232;8.616;2023-03-12T10:58:37;15.07;;;7.35;;
72087;SDS011;59961;50.232;8.616;2023-03-12T11:01:04;13.60;;;7.00;;
72087;SDS011;59961;50.232;8.616;2023-03-12T11:03:31;13.90;;;6.68;;
72087;SDS011;59961;50.232;8.616;2023-03-12T11:05:59;12.38;;;6.57;;
72087;SDS011;59961;50.232;8.616;2023-03-12T11:08:27;14.52;;;7.20;;
72087;SDS011;59961;50.232;8.616;2023-03-12T11:10:53;14.38;;;6.93;;
72087;SDS011;59961;50.232;8.616;2023-03-12T11:15:57;13.73;;;6.78;;
72087;SDS011;59961;50.232;8.616;2023-03-12T11:18:27;13.95;;;7.55;;
72087;SDS011;59961;50.232;8.616;2023-03-12T11:20:54;16.63;;;7.22;;
72087;SDS011;59961;50.232;8.616;2023-03-12T11:23:28;14.75;;;6.68;;
72087;SDS011;59961;50.232;8.616;2023-03-12T11:26:04;12.33;;;6.23;;
72087;SDS011;59961;50.232;8.616;2023-03-12T11:31:31;12.50;;;6.30;;
72087;SDS011;59961;50.232;8.616;2023-03-12T11:33:59;16.00;;;6.70;;
72087;SDS011;59961;50.232;8.616;2023-03-12T11:36:30;12.68;;;6.43;;
72087;SDS011;59961;50.232;8.616;2023-03-12T11:39:06;13.23;;;6.13;;
72087;SDS011;59961;50.232;8.616;2023-03-12T11:49:36;17.38;;;7.03;;
72087;SDS011;59961;50.232;8.616;2023-03-12T11:52:03;12.47;;;6.67;;
72087;SDS011;59961;50.232;8.616;2023-03-12T11:57:24;13.32;;;6.78;;
72087;SDS011;59961;50.232;8.616;2023-03-12T11:59:57;11.27;;;6.65;;
72087;SDS011;59961;50.232;8.616;2023-03-12T12:07:34;11.52;;;6.63;;
72087;SDS011;59961;50.232;8.616;2023-03-12T12:18:25;12.57;;;6.85;;
72087;SDS011;59961;50.232;8.616;2023-03-12T12:21:05;11.30;;;5.63;;
72087;SDS011;59961;50.232;8.616;2023-03-12T12:23:53;10.98;;;6.55;;
72087;SDS011;59961;50.232;8.616;2023-03-12T12:29:04;13.23;;;7.20;;
72087;SDS011;59961;50.232;8.616;2023-03-12T12:31:34;11.98;;;6.28;;
72087;SDS011;59961;50.232;8.616;2023-03-12T12:36:45;13.05;;;6.82;;
72087;SDS011;59961;50.232;8.616;2023-03-12T12:39:28;13.82;;;7.10;;
72087;SDS011;59961;50.232;8.616;2023-03-12T12:41:57;14.73;;;7.05;;
72087;SDS011;59961;50.232;8.616;2023-03-12T12:44:24;14.23;;;6.70;;
72087;SDS011;59961;50.232;8.616;2023-03-12T12:46:51;12.60;;;5.97;;
72087;SDS011;59961;50.232;8.616;2023-03-12T12:49:35;12.23;;;6.25;;
72087;SDS011;59961;50.232;8.616;2023-03-12T12:52:04;12.02;;;5.68;;
72087;SDS011;59961;50.232;8.616;2023-03-12T12:54:36;14.68;;;6.20;;
72087;SDS011;59961;50.232;8.616;2023-03-12T12:57:17;15.02;;;7.28;;
72087;SDS011;59961;50.232;8.616;2023-03-12T12:59:50;14.90;;;7.03;;
72087;SDS011;59961;50.232;8.616;2023-03-12T13:02:20;14.75;;;7.32;;
72087;SDS011;59961;50.232;8.616;2023-03-12T13:04:48;32.38;;;10.27;;
72087;SDS011;59961;50.232;8.616;2023-03-12T13:09:48;20.02;;;9.27;;
72087;SDS011;59961;50.232;8.616;2023-03-12T13:14:49;19.07;;;8.07;;
72087;SDS011;59961;50.232;8.616;2023-03-12T13:17:19;20.05;;;8.70;;
72087;SDS011;59961;50.232;8.616;2023-03-12T13:19:46;21.55;;;9.73;;
72087;SDS011;59961;50.232;8.616;2023-03-12T13:27:37;14.53;;;7.53;;
72087;SDS011;59961;50.232;8.616;2023-03-12T13:38:23;14.40;;;6.63;;
72087;SDS011;59961;50.232;8.616;2023-03-12T13:48:19;12.32;;;6.75;;
72087;SDS011;59961;50.232;8.616;2023-03-12T13:50:49;12.88;;;7.07;;
72087;SDS011;59961;50.232;8.616;2023-03-12T13:53:19;12.97;;;7.10;;
72087;SDS011;59961;50.232;8.616;2023-03-12T13:55:48;14.15;;;6.68;;
72087;SDS011;59961;50.232;8.616;2023-03-12T13:58:16;11.55;;;6.78;;
72087;SDS011;59961;50.232;8.616;2023-03-12T14:01:04;11.73;;;6.78;;
72087;SDS011;59961;50.232;8.616;2023-03-12T14:03:34;16.33;;;7.63;;
72087;SDS011;59961;50.232;8.616;2023-03-12T14:14:23;12.80;;;7.05;;
72087;SDS011;59961;50.232;8.616;2023-03-12T14:16:55;13.70;;;7.53;;
72087;SDS011;59961;50.232;8.616;2023-03-12T14:19:25;14.53;;;7.63;;
72087;SDS011;59961;50.232;8.616;2023-03-12T14:21:51;12.40;;;7.20;;
72087;SDS011;59961;50.232;8.616;2023-03-12T14:24:24;19.02;;;7.00;;
72087;SDS011;59961;50.232;8.616;2023-03-12T14:26:51;13.07;;;6.75;;
72087;SDS011;59961;50.232;8.616;2023-03-12T14:31:41;17.95;;;7.93;;
72087;SDS011;59961;50.232;8.616;2023-03-12T14:36:37;15.50;;;7.60;;
72087;SDS011;59961;50.232;8.616;2023-03-12T14:39:15;15.97;;;7.53;;
72087;SDS011;59961;50.232;8.616;2023-03-12T14:41:43;15.07;;;7.80;;
72087;SDS011;59961;50.232;8.616;2023-03-12T14:44:25;15.23;;;6.97;;
72087;SDS011;59961;50.232;8.616;2023-03-12T14:47:06;16.38;;;8.50;;
72087;SDS011;59961;50.232;8.616;2023-03-12T14:49:39;18.95;;;9.73;;
72087;SDS011;59961;50.232;8.616;2023-03-12T14:52:04;12.80;;;6.77;;
72087;SDS011;59961;50.232;8.616;2023-03-12T14:54:29;12.83;;;7.03;;
72087;SDS011;59961;50.232;8.616;2023-03-12T14:56:54;12.38;;;6.20;;
72087;SDS011;59961;50.232;8.616;2023-03-12T14:59:27;12.98;;;6.28;;
72087;SDS011;59961;50.232;8.616;2023-03-12T15:01:59;13.80;;;6.72;;
72087;SDS011;59961;50.232;8.616;2023-03-12T15:04:25;13.57;;;7.53;;
72087;SDS011;59961;50.232;8.616;2023-03-12T15:06:54;10.83;;;6.20;;
72087;SDS011;59961;50.232;8.616;2023-03-12T15:09:21;13.80;;;7.05;;
72087;SDS011;59961;50.232;8.616;2023-03-12T15:11:50;16.17;;;7.00;;
72087;SDS011;59961;50.232;8.616;2023-03-12T15:14:16;16.75;;;7.15;;
72087;SDS011;59961;50.232;8.616;2023-03-12T15:16:41;16.50;;;7.43;;
72087;SDS011;59961;50.232;8.616;2023-03-12T15:19:10;13.67;;;7.27;;
72087;SDS011;59961;50.232;8.616;2023-03-12T15:21:35;14.38;;;7.10;;
72087;SDS011;59961;50.232;8.616;2023-03-12T15:24:00;12.60;;;6.50;;
72087;SDS011;59961;50.232;8.616;2023-03-12T15:26:27;14.57;;;6.15;;
72087;SDS011;59961;50.232;8.616;2023-03-12T15:28:57;13.57;;;6.50;;
72087;SDS011;59961;50.232;8.616;2023-03-12T15:31:23;12.17;;;6.00;;
72087;SDS011;59961;50.232;8.616;2023-03-12T15:34:01;11.48;;;5.85;;
72087;SDS011;59961;50.232;8.616;2023-03-12T15:36:27;13.95;;;7.25;;
72087;SDS011;59961;50.232;8.616;2023-03-12T15:38:54;13.07;;;6.15;;
72087;SDS011;59961;50.232;8.616;2023-03-12T15:41:21;11.18;;;5.78;;
72087;SDS011;59961;50.232;8.616;2023-03-12T15:43:50;14.07;;;6.70;;
72087;SDS011;59961;50.232;8.616;2023-03-12T15:46:15;16.33;;;6.50;;
72087;SDS011;59961;50.232;8.616;2023-03-12T15:48:41;11.20;;;5.40;;
72087;SDS011;59961;50.232;8.616;2023-03-12T15:51:12;9.73;;;4.85;;
72087;SDS011;59961;50.232;8.616;2023-03-12T15:53:37;17.97;;;8.10;;
72087;SDS011;59961;50.232;8.616;2023-03-12T15:56:04;9.67;;;4.67;;
72087;SDS011;59961;50.232;8.616;2023-03-12T15:58:34;9.55;;;4.32;;
72087;SDS011;59961;50.232;8.616;2023-03-12T16:01:06;13.75;;;4.63;;
72087;SDS011;59961;50.232;8.616;2023-03-12T16:03:32;11.50;;;4.80;;
72087;SDS011;59961;50.232;8.616;2023-03-12T16:05:57;9.47;;;4.13;;
72087;SDS011;59961;50.232;8.616;2023-03-12T16:08:24;9.50;;;4.13;;
72087;SDS011;59961;50.232;8.616;2023-03-12T16:10:51;11.10;;;4.25;;
72087;SDS011;59961;50.232;8.616;2023-03-12T16:13:18;9.73;;;3.97;;
72087;SDS011;59961;50.232;8.616;2023-03-12T16:15:44;11.15;;;5.20;;
72087;SDS011;59961;50.232;8.616;2023-03-12T16:18:13;8.90;;;3.57;;